Time;durP1;ratioP1;P1;durP2;ratioP2;P2;SDS_P1;SDS_P2;PMS_P1;PMS_P2;Temp;Humidity;BMP_temperature;BMP_pressure;BME280_temperature;BME280_humidity;BME280_pressure;Samples;Min_cycle;Max_cycle;Signal;HPM_P1;HPM_P2
2021/12/04 00:00:09;;;;;;;19.57;17.53;;;;;;;;;;2082051;28;20191;-57
2021/12/04 00:01:16;;;;;;;17.93;16.03;;;;;;;;;;2073890;28;20240;-57
2021/12/04 00:02:17;;;;;;;19.20;17.40;;;;;;;;;;2080871;28;20168;-60
2021/12/04 00:03:17;;;;;;;21.77;17.57;;;;;;;;;;2078863;28;20271;-57
2021/12/04 00:04:25;;;;;;;17.43;15.63;;;;;;;;;;2075442;28;20197;-59
2021/12/04 00:05:25;;;;;;;19.23;17.10;;;;;;;;;;2080867;28;20172;-59
2021/12/04 00:06:28;;;;;;;17.67;15.40;;;;;;;;;;2079705;28;20207;-58
2021/12/04 00:07:31;;;;;;;18.67;16.70;;;;;;;;;;2080358;28;20191;-59
2021/12/04 00:08:34;;;;;;;22.47;17.40;;;;;;;;;;2078081;28;20235;-59
2021/12/04 00:09:35;;;;;;;20.60;16.13;;;;;;;;;;2080792;28;20180;-63
2021/12/04 00:10:35;;;;;;;18.70;16.77;;;;;;;;;;2076506;28;20616;-58
2021/12/04 00:11:40;;;;;;;17.53;15.63;;;;;;;;;;2076263;28;20192;-58
2021/12/04 00:12:40;;;;;;;18.20;16.40;;;;;;;;;;2077930;28;20188;-60
2021/12/04 00:13:40;;;;;;;18.93;16.83;;;;;;;;;;2070950;28;20176;-59
2021/12/04 00:14:41;;;;;;;19.63;16.23;;;;;;;;;;2071882;28;20245;-61
2021/12/04 00:15:41;;;;;;;18.73;16.73;;;;;;;;;;2076631;28;20553;-57
2021/12/04 00:16:42;;;;;;;20.27;17.77;;;;;;;;;;2078301;28;20233;-55
2021/12/04 00:17:42;;;;;;;21.27;17.80;;;;;;;;;;2080843;28;20653;-55
2021/12/04 00:18:42;;;;;;;19.03;17.03;;;;;;;;;;2080093;28;20183;-57
2021/12/04 00:19:42;;;;;;;19.13;17.10;;;;;;;;;;2080366;28;20180;-57
2021/12/04 00:20:43;;;;;;;18.93;16.93;;;;;;;;;;2078464;28;20642;-59
2021/12/04 00:21:43;;;;;;;20.17;18.10;;;;;;;;;;2080010;28;20188;-60
2021/12/04 00:22:44;;;;;;;21.10;17.50;;;;;;;;;;2080892;28;20188;-60
2021/12/04 00:23:44;;;;;;;21.17;18.50;;;;;;;;;;2075661;28;20300;-59
2021/12/04 00:24:44;;;;;;;20.60;18.50;;;;;;;;;;2058545;28;20198;-58
2021/12/04 00:25:44;;;;;;;21.43;16.43;;;;;;;;;;2063938;28;20192;-56
2021/12/04 00:26:45;;;;;;;21.77;19.47;;;;;;;;;;2080593;28;20215;-60
2021/12/04 00:27:45;;;;;;;20.60;17.90;;;;;;;;;;2077990;28;20215;-59
2021/12/04 00:28:45;;;;;;;20.00;17.90;;;;;;;;;;2077259;28;20164;-57
2021/12/04 00:29:46;;;;;;;21.33;18.87;;;;;;;;;;2080945;28;20592;-59
2021/12/04 00:30:47;;;;;;;21.00;18.83;;;;;;;;;;2069547;28;20685;-59
2021/12/04 00:31:54;;;;;;;21.60;17.97;;;;;;;;;;2076929;28;20196;-61
2021/12/04 00:33:01;;;;;;;19.67;17.57;;;;;;;;;;2080263;28;20172;-59
2021/12/04 00:34:02;;;;;;;22.50;19.40;;;;;;;;;;2074200;28;20172;-58
2021/12/04 00:36:14;;;;;;;21.07;18.70;;;;;;;;;;2066721;28;20193;-59
2021/12/04 00:49:34;;;;;;;20.73;18.63;;;;;;;;;;2078982;28;20183;-60
2021/12/04 00:50:35;;;;;;;23.93;20.13;;;;;;;;;;2069504;28;20192;-57
2021/12/04 00:51:42;;;;;;;22.33;19.70;;;;;;;;;;2071667;28;20205;-59
2021/12/04 00:52:43;;;;;;;20.77;18.57;;;;;;;;;;2082406;28;20571;-57
2021/12/04 00:53:43;;;;;;;24.47;20.43;;;;;;;;;;2081735;28;20226;-60
2021/12/04 00:54:44;;;;;;;23.00;20.47;;;;;;;;;;2081843;28;20184;-56
2021/12/04 00:55:44;;;;;;;22.37;19.87;;;;;;;;;;2079142;28;20271;-59
2021/12/04 00:56:45;;;;;;;26.30;21.23;;;;;;;;;;2080827;28;20180;-58
2021/12/04 00:57:45;;;;;;;24.33;20.40;;;;;;;;;;2083000;28;20172;-56
2021/12/04 00:58:45;;;;;;;22.63;19.87;;;;;;;;;;2086820;28;20209;-62
2021/12/04 00:59:46;;;;;;;24.27;20.10;;;;;;;;;;2086247;28;20330;-60
2021/12/04 01:00:46;;;;;;;22.33;19.93;;;;;;;;;;2073005;28;20178;-60
2021/12/04 01:01:47;;;;;;;22.70;19.90;;;;;;;;;;2073693;28;20193;-57
2021/12/04 01:02:47;;;;;;;26.40;21.90;;;;;;;;;;2072980;28;20200;-56
2021/12/04 01:03:47;;;;;;;22.93;19.90;;;;;;;;;;2064936;28;20193;-57
2021/12/04 01:04:48;;;;;;;21.10;18.67;;;;;;;;;;2075579;28;20235;-57
2021/12/04 01:05:48;;;;;;;26.03;20.90;;;;;;;;;;2080762;28;20211;-56
2021/12/04 01:06:48;;;;;;;22.83;19.07;;;;;;;;;;2080136;28;20209;-53
2021/12/04 01:07:49;;;;;;;22.37;19.97;;;;;;;;;;2081559;28;20204;-58
2021/12/04 01:08:49;;;;;;;24.17;21.53;;;;;;;;;;2080301;28;20193;-57
2021/12/04 01:09:49;;;;;;;24.27;20.23;;;;;;;;;;2081426;28;20225;-58
2021/12/04 01:10:49;;;;;;;22.90;20.50;;;;;;;;;;2076438;28;20188;-57
2021/12/04 01:11:50;;;;;;;25.13;21.43;;;;;;;;;;2076552;28;20563;-58
2021/12/04 01:12:50;;;;;;;24.67;21.07;;;;;;;;;;2080236;28;20204;-58
2021/12/04 01:13:51;;;;;;;24.67;20.40;;;;;;;;;;2080416;28;20307;-57
2021/12/04 01:14:51;;;;;;;24.07;20.43;;;;;;;;;;2076257;28;20770;-55
2021/12/04 01:15:51;;;;;;;23.97;20.47;;;;;;;;;;2073165;28;20213;-58
2021/12/04 01:16:52;;;;;;;24.40;21.40;;;;;;;;;;2072480;28;20199;-58
2021/12/04 01:17:52;;;;;;;22.83;19.80;;;;;;;;;;2080509;28;20181;-52
2021/12/04 01:18:52;;;;;;;25.10;20.07;;;;;;;;;;2080640;28;20657;-57
2021/12/04 01:19:53;;;;;;;23.33;20.33;;;;;;;;;;2081206;28;20267;-58
2021/12/04 01:20:53;;;;;;;26.63;21.07;;;;;;;;;;2079539;28;20192;-58
2021/12/04 01:21:53;;;;;;;25.17;20.83;;;;;;;;;;2080929;28;20245;-57
2021/12/04 01:22:53;;;;;;;23.73;19.53;;;;;;;;;;2081480;28;20271;-56
2021/12/04 01:23:55;;;;;;;23.80;20.47;;;;;;;;;;2081637;28;20184;-56
2021/12/04 01:24:55;;;;;;;20.57;18.37;;;;;;;;;;2081601;28;20180;-57
2021/12/04 01:25:56;;;;;;;23.07;19.70;;;;;;;;;;2080899;28;20190;-56
2021/12/04 01:26:56;;;;;;;23.50;20.37;;;;;;;;;;2081166;28;20273;-54
2021/12/04 01:27:57;;;;;;;23.03;20.43;;;;;;;;;;2081723;28;20180;-59
2021/12/04 01:28:57;;;;;;;20.93;18.70;;;;;;;;;;2081488;28;20678;-59
2021/12/04 01:29:57;;;;;;;21.07;18.87;;;;;;;;;;2073039;28;20200;-59
2021/12/04 01:30:57;;;;;;;20.63;18.43;;;;;;;;;;2066420;28;20213;-58
2021/12/04 01:31:58;;;;;;;22.50;19.67;;;;;;;;;;2079839;28;20192;-59
2021/12/04 01:32:58;;;;;;;21.33;19.17;;;;;;;;;;2080182;28;20267;-58
2021/12/04 01:33:58;;;;;;;22.63;20.23;;;;;;;;;;2074625;28;20184;-58
2021/12/04 01:34:59;;;;;;;20.90;18.77;;;;;;;;;;2081175;28;20640;-60
2021/12/04 01:35:59;;;;;;;20.13;18.03;;;;;;;;;;2075194;28;20182;-59
2021/12/04 01:36:59;;;;;;;21.10;18.73;;;;;;;;;;2074276;28;20264;-59
2021/12/04 01:38:00;;;;;;;23.10;19.33;;;;;;;;;;2081228;28;20255;-56
2021/12/04 01:39:00;;;;;;;22.20;19.13;;;;;;;;;;2082422;28;20184;-58
2021/12/04 01:40:00;;;;;;;21.70;19.40;;;;;;;;;;2081996;28;20177;-59
2021/12/04 01:41:01;;;;;;;22.37;18.63;;;;;;;;;;2082142;28;20176;-59
2021/12/04 01:42:01;;;;;;;20.93;18.73;;;;;;;;;;2082375;28;20172;-59
2021/12/04 01:43:01;;;;;;;21.87;18.20;;;;;;;;;;2082142;28;20658;-56
2021/12/04 01:44:03;;;;;;;20.67;18.57;;;;;;;;;;2082188;28;20211;-58
2021/12/04 01:45:05;;;;;;;20.97;18.17;;;;;;;;;;2073340;28;20673;-58
2021/12/04 01:46:05;;;;;;;21.23;18.83;;;;;;;;;;2073520;28;20184;-53
2021/12/04 01:47:16;;;;;;;21.67;19.27;;;;;;;;;;2081954;28;20239;-59
2021/12/04 01:48:16;;;;;;;21.83;18.60;;;;;;;;;;2082109;28;20168;-56
2021/12/04 01:49:16;;;;;;;23.03;19.03;;;;;;;;;;2081994;28;20542;-55
2021/12/04 01:50:17;;;;;;;21.93;19.57;;;;;;;;;;2073107;28;20185;-59
2021/12/04 01:51:17;;;;;;;19.93;17.67;;;;;;;;;;2065044;28;20200;-58
2021/12/04 01:52:18;;;;;;;22.33;17.60;;;;;;;;;;2073044;28;20173;-58
2021/12/04 01:53:19;;;;;;;20.47;18.27;;;;;;;;;;2081952;28;20555;-59
2021/12/04 01:54:19;;;;;;;22.17;18.33;;;;;;;;;;2081995;28;20208;-57
2021/12/04 01:55:19;;;;;;;20.17;17.70;;;;;;;;;;2081461;28;20180;-59
2021/12/04 01:56:20;;;;;;;18.87;16.87;;;;;;;;;;2081416;28;20180;-59
2021/12/04 01:57:21;;;;;;;18.93;16.93;;;;;;;;;;2072604;28;20184;-58
2021/12/04 01:58:22;;;;;;;23.07;16.73;;;;;;;;;;2073462;28;20606;-58
2021/12/04 01:59:22;;;;;;;17.93;16.13;;;;;;;;;;2082040;28;20214;-57
2021/12/04 02:00:22;;;;;;;19.80;17.23;;;;;;;;;;2080870;28;20184;-59
2021/12/04 02:01:25;;;;;;;18.57;16.67;;;;;;;;;;2081581;28;20576;-59
2021/12/04 02:02:25;;;;;;;19.37;17.30;;;;;;;;;;2082667;28;20196;-60
2021/12/04 02:03:25;;;;;;;20.87;17.17;;;;;;;;;;2073481;28;20599;-61
2021/12/04 02:04:26;;;;;;;21.87;18.00;;;;;;;;;;2072448;28;20169;-61
2021/12/04 02:05:26;;;;;;;20.27;17.23;;;;;;;;;;2082531;28;20183;-59
2021/12/04 02:06:26;;;;;;;19.43;16.80;;;;;;;;;;2074231;28;20169;-59
2021/12/04 02:07:27;;;;;;;21.30;18.47;;;;;;;;;;2066669;28;20236;-58
2021/12/04 02:08:27;;;;;;;22.97;17.30;;;;;;;;;;2066738;28;20310;-61
2021/12/04 02:09:27;;;;;;;22.57;16.67;;;;;;;;;;2074503;28;20168;-61
2021/12/04 02:10:27;;;;;;;20.30;18.03;;;;;;;;;;2083783;28;20195;-62
2021/12/04 02:11:28;;;;;;;20.50;17.97;;;;;;;;;;2073042;28;20921;-62
2021/12/04 02:12:28;;;;;;;23.73;17.93;;;;;;;;;;2074626;28;20267;-61
2021/12/04 02:13:28;;;;;;;20.47;17.43;;;;;;;;;;2077846;28;20293;-62
2021/12/04 02:14:29;;;;;;;19.57;17.43;;;;;;;;;;2076192;28;20180;-61
2021/12/04 02:15:29;;;;;;;21.23;18.80;;;;;;;;;;2074997;28;20179;-60
2021/12/04 02:16:30;;;;;;;24.37;19.00;;;;;;;;;;2072438;28;20192;-61
2021/12/04 02:17:31;;;;;;;22.87;18.93;;;;;;;;;;2070242;28;20173;-60
2021/12/04 02:18:31;;;;;;;22.70;18.23;;;;;;;;;;2070413;28;20563;-60
2021/12/04 02:19:32;;;;;;;20.30;18.07;;;;;;;;;;2071356;28;20213;-60
2021/12/04 02:20:33;;;;;;;23.93;19.87;;;;;;;;;;2081758;28;20691;-61
2021/12/04 02:21:33;;;;;;;23.87;18.30;;;;;;;;;;2079049;28;20203;-60
2021/12/04 02:22:33;;;;;;;20.67;18.30;;;;;;;;;;2083954;28;20279;-58
2021/12/04 02:23:34;;;;;;;22.53;18.00;;;;;;;;;;2069067;28;20178;-60
2021/12/04 02:24:34;;;;;;;19.43;17.30;;;;;;;;;;2073450;28;20287;-57
2021/12/04 02:25:35;;;;;;;24.73;18.40;;;;;;;;;;2078490;28;20177;-58
2021/12/04 02:26:35;;;;;;;18.23;16.37;;;;;;;;;;2085179;28;20690;-59
2021/12/04 02:27:36;;;;;;;20.40;17.50;;;;;;;;;;2081943;28;20160;-56
2021/12/04 02:28:37;;;;;;;23.47;19.07;;;;;;;;;;2082295;28;20206;-59
2021/12/04 02:29:42;;;;;;;22.30;18.37;;;;;;;;;;2082709;28;20177;-59
2021/12/04 02:30:43;;;;;;;21.70;18.40;;;;;;;;;;2083575;28;20260;-58
2021/12/04 02:31:48;;;;;;;22.73;19.03;;;;;;;;;;2082884;28;20203;-59
2021/12/04 02:32:49;;;;;;;24.40;18.43;;;;;;;;;;2075004;28;20544;-58
2021/12/04 02:33:49;;;;;;;21.83;17.70;;;;;;;;;;2078573;28;20208;-61
2021/12/04 02:34:49;;;;;;;22.13;18.83;;;;;;;;;;2084680;28;20208;-61
2021/12/04 02:35:52;;;;;;;21.50;18.10;;;;;;;;;;2083167;28;20180;-57
2021/12/04 02:36:53;;;;;;;21.60;18.10;;;;;;;;;;2083719;28;20176;-61
2021/12/04 02:37:53;;;;;;;22.40;18.50;;;;;;;;;;2085731;28;20248;-61
2021/12/04 02:38:54;;;;;;;22.03;17.70;;;;;;;;;;2077286;28;20187;-61
2021/12/04 02:40:00;;;;;;;24.13;18.37;;;;;;;;;;2078191;28;20675;-61
2021/12/04 02:41:01;;;;;;;20.67;18.47;;;;;;;;;;2087422;28;20182;-59
2021/12/04 02:42:04;;;;;;;21.30;17.67;;;;;;;;;;2087863;28;20188;-59
2021/12/04 02:43:04;;;;;;;26.10;19.43;;;;;;;;;;2087950;28;20180;-61
2021/12/04 02:44:05;;;;;;;21.10;17.93;;;;;;;;;;2087569;28;20633;-60
2021/12/04 02:45:09;;;;;;;26.83;18.40;;;;;;;;;;2083475;28;20680;-62
2021/12/04 02:46:09;;;;;;;23.80;18.43;;;;;;;;;;2086320;28;20191;-55
2021/12/04 02:47:09;;;;;;;19.00;16.43;;;;;;;;;;2086107;28;20168;-58
2021/12/04 02:48:12;;;;;;;22.87;17.37;;;;;;;;;;2086565;28;20192;-59
2021/12/04 02:49:14;;;;;;;19.03;16.70;;;;;;;;;;2087576;28;20188;-57
2021/12/04 02:50:16;;;;;;;21.67;16.43;;;;;;;;;;2086937;28;20184;-59
2021/12/04 02:51:18;;;;;;;20.90;15.60;;;;;;;;;;2078149;28;20212;-60
2021/12/04 02:52:19;;;;;;;18.80;15.80;;;;;;;;;;2078918;28;20233;-60
2021/12/04 02:53:20;;;;;;;20.83;16.30;;;;;;;;;;2087347;28;20191;-63
2021/12/04 02:54:20;;;;;;;17.37;15.57;;;;;;;;;;2086928;28;20186;-59
2021/12/04 02:55:20;;;;;;;17.83;14.80;;;;;;;;;;2087666;28;20184;-61
2021/12/04 02:56:21;;;;;;;21.00;15.80;;;;;;;;;;2087063;28;20179;-59
2021/12/04 02:57:22;;;;;;;18.97;15.77;;;;;;;;;;2085334;28;20671;-57
2021/12/04 02:58:22;;;;;;;19.57;16.50;;;;;;;;;;2086920;28;20183;-56
2021/12/04 02:59:23;;;;;;;19.20;16.00;;;;;;;;;;2080712;28;20261;-61
2021/12/04 03:00:24;;;;;;;16.87;14.60;;;;;;;;;;2084506;28;20176;-59
2021/12/04 03:01:24;;;;;;;16.60;14.37;;;;;;;;;;2078796;28;20200;-60
2021/12/04 03:02:25;;;;;;;17.63;15.03;;;;;;;;;;2083118;28;20180;-60
2021/12/04 03:03:26;;;;;;;17.97;14.60;;;;;;;;;;2084803;28;20224;-60
2021/12/04 03:04:28;;;;;;;16.47;14.87;;;;;;;;;;2084403;28;20248;-60
2021/12/04 03:05:28;;;;;;;19.07;14.43;;;;;;;;;;2074489;28;20228;-59
2021/12/04 03:06:28;;;;;;;18.43;16.00;;;;;;;;;;2070570;28;20736;-59
2021/12/04 03:07:29;;;;;;;18.63;15.73;;;;;;;;;;2067631;28;20195;-61
2021/12/04 03:08:29;;;;;;;17.10;15.30;;;;;;;;;;2068386;28;20189;-61
2021/12/04 03:09:29;;;;;;;18.00;15.47;;;;;;;;;;2076457;28;20692;-61
2021/12/04 03:10:29;;;;;;;17.20;15.40;;;;;;;;;;2078257;28;20176;-58
2021/12/04 03:11:30;;;;;;;17.40;14.07;;;;;;;;;;2081390;28;20212;-58
2021/12/04 03:12:30;;;;;;;17.97;14.13;;;;;;;;;;2081076;28;20681;-61
2021/12/04 03:13:30;;;;;;;16.60;14.23;;;;;;;;;;2080479;28;20195;-61
2021/12/04 03:14:31;;;;;;;17.83;15.53;;;;;;;;;;2069947;28;20257;-58
2021/12/04 03:15:31;;;;;;;16.13;14.23;;;;;;;;;;2068092;28;20177;-61
2021/12/04 03:16:33;;;;;;;15.83;14.07;;;;;;;;;;2074069;28;20181;-56
2021/12/04 03:17:33;;;;;;;16.27;14.57;;;;;;;;;;2067423;28;20217;-58
2021/12/04 03:18:34;;;;;;;18.97;14.53;;;;;;;;;;2068471;28;20235;-60
2021/12/04 03:19:36;;;;;;;15.57;13.90;;;;;;;;;;2078500;28;20703;-59
2021/12/04 03:20:42;;;;;;;16.80;13.83;;;;;;;;;;2077251;28;20180;-56
2021/12/04 03:21:42;;;;;;;15.00;13.10;;;;;;;;;;2079824;28;20267;-59
2021/12/04 03:22:44;;;;;;;16.03;14.37;;;;;;;;;;2073200;28;20640;-59
2021/12/04 03:24:07;;;;;;;14.57;13.10;;;;;;;;;;2076571;28;20176;-61
2021/12/04 03:25:08;;;;;;;15.43;13.93;;;;;;;;;;2085539;28;20203;-57
2021/12/04 03:26:10;;;;;;;14.70;13.17;;;;;;;;;;2075274;28;20329;-58
2021/12/04 03:27:11;;;;;;;14.13;12.73;;;;;;;;;;2066738;28;20184;-58
2021/12/04 03:28:15;;;;;;;17.27;13.50;;;;;;;;;;2082101;28;20183;-57
2021/12/04 03:29:19;;;;;;;14.50;13.00;;;;;;;;;;2075036;28;20169;-56
2021/12/04 03:30:38;;;;;;;15.17;12.87;;;;;;;;;;2074123;28;20187;-60
2021/12/04 03:35:16;;;;;;;13.33;12.00;;;;;;;;;;2079128;28;20556;-59
2021/12/04 03:40:53;;;;;;;12.97;11.67;;;;;;;;;;2083687;28;20172;-60
2021/12/04 03:41:53;;;;;;;12.80;11.10;;;;;;;;;;2069052;28;20252;-60
2021/12/04 03:42:55;;;;;;;12.80;11.50;;;;;;;;;;2064522;28;20323;-61
2021/12/04 03:43:55;;;;;;;13.33;12.03;;;;;;;;;;2062792;28;20680;-59
2021/12/04 03:44:56;;;;;;;14.30;12.90;;;;;;;;;;2074658;28;20177;-60
2021/12/04 03:45:59;;;;;;;13.30;11.90;;;;;;;;;;2089989;28;20555;-55
2021/12/04 03:47:00;;;;;;;12.43;11.33;;;;;;;;;;2077563;28;20212;-60
2021/12/04 03:48:17;;;;;;;13.47;12.03;;;;;;;;;;2071241;28;20266;-60
2021/12/04 03:49:18;;;;;;;13.07;11.57;;;;;;;;;;2068503;28;20176;-60
2021/12/04 03:50:18;;;;;;;13.27;11.83;;;;;;;;;;2078984;28;20172;-61
2021/12/04 03:51:20;;;;;;;13.47;12.13;;;;;;;;;;2079335;28;20246;-60
2021/12/04 03:52:20;;;;;;;13.30;12.00;;;;;;;;;;2077724;28;20176;-59
2021/12/04 03:53:20;;;;;;;12.63;11.30;;;;;;;;;;2080251;28;20187;-57
2021/12/04 03:54:21;;;;;;;11.87;10.57;;;;;;;;;;2075830;28;20219;-61
2021/12/04 03:55:21;;;;;;;13.07;11.77;;;;;;;;;;2080831;28;20179;-58
2021/12/04 03:56:22;;;;;;;12.90;11.60;;;;;;;;;;2079009;28;20185;-57
2021/12/04 03:57:23;;;;;;;13.10;11.80;;;;;;;;;;2074974;28;20174;-55
2021/12/04 03:58:23;;;;;;;12.80;11.60;;;;;;;;;;2080399;28;20323;-59
2021/12/04 03:59:24;;;;;;;13.03;11.77;;;;;;;;;;2076689;28;20674;-58
2021/12/04 04:00:28;;;;;;;12.97;11.47;;;;;;;;;;2080225;28;20179;-56
2021/12/04 04:01:28;;;;;;;13.50;12.13;;;;;;;;;;2076543;28;21778;-59
2021/12/04 04:02:29;;;;;;;13.00;11.80;;;;;;;;;;2080887;28;20187;-60
2021/12/04 04:03:29;;;;;;;12.70;11.40;;;;;;;;;;2081670;28;20164;-59
2021/12/04 04:04:29;;;;;;;13.97;12.50;;;;;;;;;;2081825;28;20246;-59
2021/12/04 04:05:29;;;;;;;13.90;11.27;;;;;;;;;;2082438;28;20179;-60
2021/12/04 04:06:30;;;;;;;12.47;11.27;;;;;;;;;;2082317;28;20199;-58
2021/12/04 04:07:30;;;;;;;13.40;12.00;;;;;;;;;;2079350;28;20177;-58
2021/12/04 04:08:31;;;;;;;11.73;10.53;;;;;;;;;;2069381;28;20577;-61
2021/12/04 04:09:31;;;;;;;13.10;11.67;;;;;;;;;;2078832;28;20168;-60
2021/12/04 04:10:32;;;;;;;12.50;11.20;;;;;;;;;;2082409;28;20250;-57
2021/12/04 04:11:35;;;;;;;12.43;11.30;;;;;;;;;;2080943;28;20189;-59
2021/12/04 04:12:36;;;;;;;13.07;11.77;;;;;;;;;;2080115;28;20180;-60
2021/12/04 04:13:42;;;;;;;12.63;11.33;;;;;;;;;;2086518;28;20177;-60
2021/12/04 04:14:43;;;;;;;12.63;11.43;;;;;;;;;;2084119;28;20175;-58
2021/12/04 04:15:43;;;;;;;13.93;12.03;;;;;;;;;;2087131;28;20172;-55
2021/12/04 04:16:43;;;;;;;11.97;10.87;;;;;;;;;;2081995;28;20184;-59
2021/12/04 04:17:43;;;;;;;12.63;11.33;;;;;;;;;;2078521;28;20218;-55
2021/12/04 04:18:44;;;;;;;13.63;11.97;;;;;;;;;;2091039;28;20235;-59
2021/12/04 04:19:44;;;;;;;13.80;12.37;;;;;;;;;;2091002;28;20710;-59
2021/12/04 04:20:45;;;;;;;13.97;12.47;;;;;;;;;;2084959;28;20200;-58
2021/12/04 04:21:45;;;;;;;13.97;12.57;;;;;;;;;;2070945;28;20347;-60
2021/12/04 04:22:46;;;;;;;13.43;12.10;;;;;;;;;;2074940;28;20556;-58
2021/12/04 04:23:46;;;;;;;13.80;12.40;;;;;;;;;;2084070;28;20263;-61
2021/12/04 04:24:46;;;;;;;13.33;11.97;;;;;;;;;;2082534;28;20248;-59
2021/12/04 04:25:47;;;;;;;13.90;12.60;;;;;;;;;;2083682;28;20239;-52
2021/12/04 04:26:47;;;;;;;14.30;12.80;;;;;;;;;;2088666;28;20758;-58
2021/12/04 04:27:47;;;;;;;16.20;12.37;;;;;;;;;;2087198;28;20763;-59
2021/12/04 04:28:48;;;;;;;14.87;13.27;;;;;;;;;;2084021;28;20172;-59
2021/12/04 04:29:48;;;;;;;15.10;13.17;;;;;;;;;;2080368;28;20227;-61
2021/12/04 04:30:48;;;;;;;15.87;13.90;;;;;;;;;;2080930;28;20204;-60
2021/12/04 04:31:49;;;;;;;15.17;13.03;;;;;;;;;;2085349;28;20204;-56
2021/12/04 04:32:51;;;;;;;17.53;13.93;;;;;;;;;;2083539;28;20322;-59
2021/12/04 04:33:57;;;;;;;14.10;12.60;;;;;;;;;;2084603;28;20188;-58
2021/12/04 04:35:07;;;;;;;14.53;12.87;;;;;;;;;;2084472;28;20171;-58
2021/12/04 04:36:18;;;;;;;16.00;13.27;;;;;;;;;;2077819;28;20161;-61
2021/12/04 04:38:35;;;;;;;15.00;13.43;;;;;;;;;;2084139;28;20169;-59
2021/12/04 05:10:21;;;;;;;16.30;14.13;;;;;;;;;;2075987;28;20188;-58
2021/12/04 05:11:33;;;;;;;15.30;13.70;;;;;;;;;;2082440;28;20572;-59
2021/12/04 05:12:55;;;;;;;16.13;13.73;;;;;;;;;;2078334;28;21496;-60
2021/12/04 05:13:56;;;;;;;15.40;13.80;;;;;;;;;;2083193;28;20655;-60
2021/12/04 05:15:00;;;;;;;18.67;13.83;;;;;;;;;;2084150;28;20648;-59
2021/12/04 05:16:11;;;;;;;15.77;14.17;;;;;;;;;;2078484;28;20208;-60
2021/12/04 05:17:27;;;;;;;16.33;14.63;;;;;;;;;;2068839;28;20798;-58
2021/12/04 05:19:45;;;;;;;15.27;13.67;;;;;;;;;;2084966;28;20244;-60
2021/12/04 05:20:52;;;;;;;18.73;13.60;;;;;;;;;;2086826;28;20176;-58
2021/12/04 05:21:53;;;;;;;15.63;13.93;;;;;;;;;;2082965;28;20556;-58
2021/12/04 05:22:53;;;;;;;15.67;13.97;;;;;;;;;;2082326;28;20271;-61
2021/12/04 05:23:54;;;;;;;21.63;15.47;;;;;;;;;;2083517;28;20184;-61
2021/12/04 05:24:54;;;;;;;19.10;14.87;;;;;;;;;;2076721;28;20177;-58
2021/12/04 05:25:55;;;;;;;15.90;14.20;;;;;;;;;;2081514;28;20172;-59
2021/12/04 05:26:55;;;;;;;15.87;14.13;;;;;;;;;;2075691;28;20201;-56
2021/12/04 05:27:55;;;;;;;16.47;14.33;;;;;;;;;;2080881;28;20216;-53
2021/12/04 05:28:59;;;;;;;15.40;13.90;;;;;;;;;;2079336;28;20224;-54
2021/12/04 05:29:59;;;;;;;17.23;15.43;;;;;;;;;;2081394;28;20203;-55
2021/12/04 05:30:59;;;;;;;15.90;14.17;;;;;;;;;;2078153;28;20169;-55
2021/12/04 05:32:00;;;;;;;16.53;14.83;;;;;;;;;;2081082;28;20255;-59
2021/12/04 05:33:00;;;;;;;15.70;14.00;;;;;;;;;;2079499;28;20188;-57
2021/12/04 05:34:01;;;;;;;17.00;15.30;;;;;;;;;;2082738;28;20172;-57
2021/12/04 05:35:01;;;;;;;20.70;15.97;;;;;;;;;;2082243;28;20191;-58
2021/12/04 05:36:02;;;;;;;16.97;15.17;;;;;;;;;;2074809;28;20181;-54
2021/12/04 05:37:02;;;;;;;15.67;14.00;;;;;;;;;;2071221;28;20725;-58
2021/12/04 05:38:03;;;;;;;16.50;14.80;;;;;;;;;;2072779;28;20219;-57
2021/12/04 05:39:03;;;;;;;17.80;15.13;;;;;;;;;;2082273;28;20202;-56
2021/12/04 05:40:06;;;;;;;18.53;15.53;;;;;;;;;;2082260;28;20187;-57
2021/12/04 05:41:07;;;;;;;17.87;14.57;;;;;;;;;;2081881;28;20183;-59
2021/12/04 05:42:07;;;;;;;18.00;14.90;;;;;;;;;;2082431;28;20214;-58
2021/12/04 05:43:07;;;;;;;16.90;15.10;;;;;;;;;;2082465;28;20250;-58
2021/12/04 05:44:09;;;;;;;15.50;13.90;;;;;;;;;;2082219;28;20164;-53
2021/12/04 05:45:22;;;;;;;16.43;14.73;;;;;;;;;;2082169;28;20272;-57
2021/12/04 05:46:27;;;;;;;16.37;14.67;;;;;;;;;;2082638;28;20219;-57
2021/12/04 05:47:38;;;;;;;15.17;13.67;;;;;;;;;;2074019;28;20196;-60
2021/12/04 05:56:07;;;;;;;17.47;15.40;;;;;;;;;;2082358;28;20218;-55
2021/12/04 05:57:08;;;;;;;16.20;14.60;;;;;;;;;;2078673;28;20659;-54
2021/12/04 05:58:09;;;;;;;16.57;14.87;;;;;;;;;;2073271;28;20177;-58
2021/12/04 05:59:09;;;;;;;16.77;15.10;;;;;;;;;;2076947;28;20183;-56
2021/12/04 06:00:19;;;;;;;16.00;14.50;;;;;;;;;;2081005;28;20217;-56
2021/12/04 06:01:21;;;;;;;16.37;14.43;;;;;;;;;;2080127;28;20196;-55
2021/12/04 06:02:21;;;;;;;15.67;14.17;;;;;;;;;;2077001;28;20283;-56
2021/12/04 06:03:22;;;;;;;15.87;14.27;;;;;;;;;;2081610;28;20170;-53
2021/12/04 06:04:22;;;;;;;16.00;14.43;;;;;;;;;;2080088;28;20180;-56
2021/12/04 06:05:22;;;;;;;18.57;14.50;;;;;;;;;;2079503;28;20184;-53
2021/12/04 06:06:22;;;;;;;16.00;14.40;;;;;;;;;;2069153;28;20344;-58
2021/12/04 06:07:23;;;;;;;15.70;13.87;;;;;;;;;;2072330;28;20189;-59
2021/12/04 06:08:23;;;;;;;15.57;13.97;;;;;;;;;;2081675;28;20200;-57
2021/12/04 06:09:23;;;;;;;15.10;13.60;;;;;;;;;;2081457;28;20254;-54
2021/12/04 06:10:24;;;;;;;15.30;13.70;;;;;;;;;;2081547;28;20182;-56
2021/12/04 06:11:24;;;;;;;15.37;13.93;;;;;;;;;;2079943;28;20266;-55
2021/12/04 06:12:24;;;;;;;15.00;13.40;;;;;;;;;;2078538;28;20176;-55
2021/12/04 06:13:25;;;;;;;15.30;13.70;;;;;;;;;;2082542;28;20275;-55
2021/12/04 06:14:25;;;;;;;14.70;13.30;;;;;;;;;;2076444;28;20180;-57
2021/12/04 06:15:25;;;;;;;14.07;12.60;;;;;;;;;;2081511;28;20271;-53
2021/12/04 06:16:26;;;;;;;14.77;12.80;;;;;;;;;;2084344;28;20580;-56
2021/12/04 06:17:28;;;;;;;14.57;13.17;;;;;;;;;;2086156;28;20200;-54
2021/12/04 06:18:29;;;;;;;14.10;12.70;;;;;;;;;;2077361;28;20186;-58
2021/12/04 06:23:26;;;;;;;14.70;13.30;;;;;;;;;;2074950;28;20164;-55
2021/12/04 06:24:26;;;;;;;13.23;11.93;;;;;;;;;;2076342;28;20204;-53
2021/12/04 06:25:27;;;;;;;13.17;11.97;;;;;;;;;;2079581;28;20659;-56
2021/12/04 06:26:27;;;;;;;13.83;12.47;;;;;;;;;;2075774;28;20188;-54
2021/12/04 06:27:28;;;;;;;13.53;12.13;;;;;;;;;;2081876;28;20184;-54
2021/12/04 06:28:28;;;;;;;14.77;12.50;;;;;;;;;;2081934;28;20521;-55
2021/12/04 06:29:28;;;;;;;12.57;11.47;;;;;;;;;;2081675;28;20783;-54
2021/12/04 06:30:33;;;;;;;13.30;12.07;;;;;;;;;;2081849;28;20276;-61
2021/12/04 06:31:34;;;;;;;13.03;11.63;;;;;;;;;;2078832;28;20715;-55
2021/12/04 06:32:37;;;;;;;13.13;11.93;;;;;;;;;;2076329;28;20164;-57
2021/12/04 06:33:38;;;;;;;12.97;11.77;;;;;;;;;;2076588;28;20731;-56
2021/12/04 06:34:38;;;;;;;13.57;12.23;;;;;;;;;;2081633;28;20203;-58
2021/12/04 06:35:40;;;;;;;12.90;11.70;;;;;;;;;;2081203;28;20181;-55
2021/12/04 06:36:41;;;;;;;12.63;11.43;;;;;;;;;;2080186;28;20226;-59
2021/12/04 06:37:41;;;;;;;14.10;12.70;;;;;;;;;;2081018;28;20180;-56
2021/12/04 06:38:42;;;;;;;13.40;12.10;;;;;;;;;;2081813;28;20287;-59
2021/12/04 06:39:42;;;;;;;12.13;11.03;;;;;;;;;;2081167;28;20194;-57
2021/12/04 06:40:43;;;;;;;13.37;12.00;;;;;;;;;;2081965;28;20199;-56
2021/12/04 06:41:43;;;;;;;13.20;11.83;;;;;;;;;;2081387;28;20588;-58
2021/12/04 06:42:44;;;;;;;11.80;10.67;;;;;;;;;;2081675;28;20172;-57
2021/12/04 06:43:48;;;;;;;12.57;11.47;;;;;;;;;;2080638;28;20215;-53
2021/12/04 06:44:51;;;;;;;12.73;11.63;;;;;;;;;;2081749;28;20212;-58
2021/12/04 06:46:03;;;;;;;12.77;11.57;;;;;;;;;;2072157;28;20177;-57
2021/12/04 06:47:04;;;;;;;12.17;11.03;;;;;;;;;;2071854;28;20224;-57
2021/12/04 06:49:12;;;;;;;12.33;11.17;;;;;;;;;;2080196;28;20168;-55
2021/12/04 06:49:38;;;;;;;12.00;10.77;;;;;;;;;;2064700;28;20945;-54
2021/12/04 06:52:22;;;;;;;12.63;11.43;;;;;;;;;;2039889;29;20183;-55
2021/12/04 06:54:29;;;;;;;12.20;11.10;;;;;;;;;;2040764;29;20199;-58
2021/12/04 06:55:37;;;;;;;12.27;11.07;;;;;;;;;;2038251;29;20188;-59
2021/12/04 06:56:41;;;;;;;12.33;11.20;;;;;;;;;;2043686;29;20151;-61
2021/12/04 06:57:43;;;;;;;11.87;10.77;;;;;;;;;;2046171;28;20184;-61
2021/12/04 06:58:43;;;;;;;12.50;11.40;;;;;;;;;;2079644;28;20165;-57
2021/12/04 06:59:46;;;;;;;11.87;10.77;;;;;;;;;;2078482;28;20200;-59
2021/12/04 07:00:47;;;;;;;12.93;11.70;;;;;;;;;;2081281;28;20841;-58
2021/12/04 07:01:47;;;;;;;12.90;11.80;;;;;;;;;;2078315;28;20208;-61
2021/12/04 07:02:47;;;;;;;13.13;11.83;;;;;;;;;;2067746;28;20256;-59
2021/12/04 07:03:48;;;;;;;12.43;11.30;;;;;;;;;;2065526;28;20162;-57
2021/12/04 07:04:48;;;;;;;12.50;11.30;;;;;;;;;;2069909;28;20180;-57
2021/12/04 07:05:49;;;;;;;12.10;10.90;;;;;;;;;;2060391;28;20176;-57
2021/12/04 07:06:50;;;;;;;12.83;11.63;;;;;;;;;;2065100;28;20260;-58